Time;durP1;ratioP1;P1;durP2;ratioP2;P2;SDS_P1;SDS_P2;PMS_P1;PMS_P2;Temp;Humidity;BMP_temperature;BMP_pressure;BME280_temperature;BME280_humidity;BME280_pressure;Samples;Min_cycle;Max_cycle;Signal;HPM_P1;HPM_P2
2022/06/23 04:57:02;;;;;;;5.97;2.80;;;;;;;17.08;67.41;101219.88;5052472;27;115502;-34
2022/06/23 04:59:44;;;;;;;5.03;2.78;;;;;;;17.13;67.25;101234.03;5054517;27;96774;-34
2022/06/23 05:02:19;;;;;;;7.47;2.90;;;;;;;17.11;67.24;101219.63;5054874;27;100364;-34
2022/06/23 05:04:50;;;;;;;6.55;3.40;;;;;;;17.13;67.52;101228.56;5054145;27;100896;-34
2022/06/23 05:07:28;;;;;;;5.75;2.97;;;;;;;17.18;68.03;101224.47;5053584;27;96707;-34
2022/06/23 05:09:59;;;;;;;8.23;2.90;;;;;;;17.25;66.97;101218.47;5055591;27;96816;-34
2022/06/23 05:12:30;;;;;;;7.43;3.15;;;;;;;17.19;67.20;101209.78;5053113;27;101076;-34
2022/06/23 05:15:05;;;;;;;8.07;4.05;;;;;;;17.23;66.48;101221.31;5053614;27;100686;-34
2022/06/23 05:17:34;;;;;;;10.85;3.92;;;;;;;17.26;67.14;101222.97;5052684;27;96761;-34
2022/06/23 05:20:04;;;;;;;5.68;2.85;;;;;;;17.32;66.41;101226.03;5053972;27;96833;-35
2022/06/23 05:22:39;;;;;;;8.85;3.15;;;;;;;17.40;67.24;101230.88;5053650;27;99805;-35
2022/06/23 05:25:37;;;;;;;6.30;3.22;;;;;;;17.45;68.24;101231.38;5053422;27;100769;-34
2022/06/23 05:28:08;;;;;;;7.38;3.58;;;;;;;17.48;67.13;101224.75;5050309;27;96983;-34
2022/06/23 05:30:39;;;;;;;8.25;3.13;;;;;;;17.56;65.96;101231.28;5054085;27;96685;-35
2022/06/23 05:33:14;;;;;;;9.57;3.63;;;;;;;17.63;65.82;101229.78;5050953;27;100582;-35
2022/06/23 05:35:44;;;;;;;7.05;2.88;;;;;;;17.72;67.17;101233.59;5052075;27;101329;-34
2022/06/23 05:38:22;;;;;;;6.65;3.55;;;;;;;17.79;66.53;101229.34;5051944;27;96691;-34
2022/06/23 05:40:52;;;;;;;9.05;3.40;;;;;;;17.85;65.91;101229.84;5052893;27;96906;-35
2022/06/23 05:43:19;;;;;;;8.77;3.92;;;;;;;17.84;65.93;101223.50;5054624;27;99359;-34
2022/06/23 05:45:51;;;;;;;6.55;3.15;;;;;;;17.89;66.10;101217.63;5053116;27;100899;-34
2022/06/23 05:48:22;;;;;;;7.80;3.85;;;;;;;17.96;65.36;101216.09;5053780;27;96674;-34
2022/06/23 05:50:56;;;;;;;8.95;3.10;;;;;;;18.08;65.16;101222.38;5053796;27;96755;-34
2022/06/23 05:53:30;;;;;;;9.30;3.55;;;;;;;18.16;64.62;101223.44;5054500;27;99264;-34
2022/06/23 05:56:03;;;;;;;7.85;3.92;;;;;;;18.19;65.51;101211.34;5053434;27;100855;-34
2022/06/23 05:58:46;;;;;;;6.28;3.60;;;;;;;18.20;65.77;101205.69;5053969;27;96578;-34
2022/06/23 06:01:28;;;;;;;8.40;3.50;;;;;;;18.31;65.37;101213.00;5055015;27;96658;-34
2022/06/23 06:03:53;;;;;;;9.82;4.18;;;;;;;18.41;64.83;101221.28;5052807;27;100840;-34
2022/06/23 06:06:19;;;;;;;8.87;3.80;;;;;;;18.46;64.30;101210.75;5054708;27;97361;-34
2022/06/23 06:11:37;;;;;;;7.53;4.47;;;;;;;18.71;64.11;101205.81;5053440;27;97090;-34
2022/06/23 06:14:04;;;;;;;6.65;3.53;;;;;;;18.74;64.60;101194.56;5053141;27;100512;-34
2022/06/23 06:16:30;;;;;;;11.93;4.63;;;;;;;18.82;63.44;101197.50;5052886;27;100836;-34
2022/06/23 06:18:56;;;;;;;8.88;3.95;;;;;;;18.94;63.53;101198.25;5053243;27;96631;-34
2022/06/23 06:21:23;;;;;;;9.82;3.97;;;;;;;19.05;63.41;101176.19;5055222;27;96753;-34
2022/06/23 06:24:06;;;;;;;9.32;3.63;;;;;;;19.21;63.49;101182.00;5052846;27;101046;-34
2022/06/23 06:26:38;;;;;;;8.05;3.95;;;;;;;19.31;63.01;101180.13;5052927;27;100807;-34
2022/06/23 06:29:21;;;;;;;7.78;4.13;;;;;;;19.42;62.66;101172.75;5052520;27;96639;-34
2022/06/23 06:31:52;;;;;;;11.48;4.55;;;;;;;19.52;62.49;101165.38;5053067;27;96760;-34
2022/06/23 06:34:27;;;;;;;11.90;4.23;;;;;;;19.69;62.64;101186.69;5054174;27;99260;-34
2022/06/23 06:36:53;;;;;;;10.68;4.03;;;;;;;19.72;61.70;101182.75;5052739;27;98837;-34
2022/06/23 06:39:26;;;;;;;10.18;3.92;;;;;;;19.85;61.71;101197.06;5052997;27;96556;-34
2022/06/23 06:42:04;;;;;;;8.70;3.88;;;;;;;19.85;61.32;101194.31;5052950;27;96817;-34
2022/06/23 06:44:31;;;;;;;7.72;4.15;;;;;;;19.98;61.32;101209.66;5052431;27;101399;-34
2022/06/23 06:46:57;;;;;;;13.40;4.75;;;;;;;20.12;61.00;101201.81;5052902;27;101083;-34
2022/06/23 06:49:25;;;;;;;9.48;4.63;;;;;;;20.25;60.86;101206.97;5056475;27;96493;-34
2022/06/23 06:51:53;;;;;;;10.88;4.10;;;;;;;20.29;60.58;101207.56;5056573;27;96828;-34
2022/06/23 06:54:27;;;;;;;10.75;4.97;;;;;;;20.37;60.59;101205.78;5055228;27;101045;-34
2022/06/23 06:57:04;;;;;;;13.77;4.85;;;;;;;20.43;60.36;101193.31;5055792;27;100860;-34
2022/06/23 06:59:57;;;;;;;7.05;4.65;;;;;;;20.56;60.05;101204.88;5057792;27;96702;-34
2022/06/23 07:02:34;;;;;;;12.10;4.57;;;;;;;20.59;59.87;101198.19;5056269;27;96800;-34
2022/06/23 07:05:14;;;;;;;10.27;3.92;;;;;;;20.72;59.90;101201.50;5055833;27;100964;-34
2022/06/23 07:07:43;;;;;;;9.88;4.68;;;;;;;20.86;59.49;101202.03;5057345;27;97819;-34
2022/06/23 07:10:20;;;;;;;11.60;4.53;;;;;;;20.95;59.25;101193.69;5056171;27;96570;-34
2022/06/23 07:12:52;;;;;;;9.32;4.35;;;;;;;21.07;59.21;101194.38;5056449;27;96763;-34
2022/06/23 07:15:40;;;;;;;11.38;4.72;;;;;;;21.15;58.80;101210.97;5055734;27;100960;-34
2022/06/23 07:18:37;;;;;;;10.07;4.53;;;;;;;21.21;58.54;101204.84;5055698;27;101114;-34
2022/06/23 07:21:12;;;;;;;13.73;5.05;;;;;;;21.38;58.85;101200.38;5051495;27;96686;-34
2022/06/23 07:23:45;;;;;;;8.32;4.22;;;;;;;21.47;58.39;101204.09;5055731;27;96810;-34
2022/06/23 07:26:48;;;;;;;13.85;5.80;;;;;;;21.66;58.09;101202.22;5055581;27;100815;-34
2022/06/23 07:29:32;;;;;;;12.40;4.47;;;;;;;21.68;57.81;101197.41;5056577;27;97988;-34
2022/06/23 07:32:49;;;;;;;11.30;4.53;;;;;;;21.88;57.37;101189.81;5057145;27;96572;-35
2022/06/23 07:35:22;;;;;;;12.40;5.07;;;;;;;22.04;57.18;101188.03;5017705;28;96686;-34
2022/06/23 07:37:58;;;;;;;11.07;4.75;;;;;;;22.14;57.07;101182.44;5055588;27;98220;-34
2022/06/23 07:40:26;;;;;;;11.48;4.60;;;;;;;22.30;56.81;101184.47;5055801;27;101624;-34
2022/06/23 07:43:22;;;;;;;13.02;4.90;;;;;;;22.46;56.05;101181.81;5055602;27;96513;-34
2022/06/23 07:45:57;;;;;;;11.60;5.72;;;;;;;22.53;55.87;101186.69;5056721;27;96925;-34
2022/06/23 07:48:24;;;;;;;12.48;5.28;;;;;;;22.68;56.07;101190.56;5056026;27;97023;-34
2022/06/23 07:50:49;;;;;;;12.88;5.63;;;;;;;22.77;55.95;101197.00;5055082;27;100804;-34
2022/06/23 07:53:22;;;;;;;13.85;5.72;;;;;;;22.89;55.43;101199.28;5057040;27;96574;-34
2022/06/23 07:55:49;;;;;;;13.90;5.70;;;;;;;22.95;55.21;101199.63;5055282;27;96912;-34
2022/06/23 07:58:22;;;;;;;11.38;4.97;;;;;;;23.07;55.16;101201.09;5054909;27;100870;-34
2022/06/23 08:00:53;;;;;;;13.93;5.65;;;;;;;23.17;54.85;101198.19;5055968;27;99628;-34
2022/06/23 08:03:29;;;;;;;15.15;5.53;;;;;;;23.32;55.21;101202.03;5055494;27;96583;-34
2022/06/23 08:06:01;;;;;;;17.02;5.85;;;;;;;23.33;55.63;101201.00;5056789;27;96754;-34
2022/06/23 08:08:28;;;;;;;;;;;;;;;23.17;55.25;101198.19;5055167;27;100963;-34
2022/06/23 08:13:55;;;;;;;12.50;5.40;;;;;;;23.39;54.47;101186.50;5054308;27;96779;-34
2022/06/23 08:19:39;;;;;;;11.05;5.88;;;;;;;23.58;54.30;101181.69;5056458;27;98045;-34
2022/06/23 08:22:07;;;;;;;13.05;5.93;;;;;;;23.86;54.26;101185.88;5054654;27;101191;-34
2022/06/23 08:24:36;;;;;;;15.30;6.50;;;;;;;24.05;53.98;101181.91;5056291;27;96509;-34
2022/06/23 08:27:09;;;;;;;15.10;7.68;;;;;;;24.12;53.19;101171.84;5054809;27;96779;-34
2022/06/23 08:29:42;;;;;;;18.63;7.53;;;;;;;24.36;53.32;101184.78;5054715;27;98936;-34
2022/06/23 08:32:08;;;;;;;14.77;6.65;;;;;;;24.43;52.37;101178.53;5054542;27;101130;-34
2022/06/23 08:34:37;;;;;;;13.98;5.88;;;;;;;24.56;53.01;101168.66;5054830;27;96579;-34
2022/06/23 08:37:15;;;;;;;21.23;6.93;;;;;;;24.63;52.14;101156.88;5054742;27;96799;-34
2022/06/23 08:39:59;;;;;;;18.45;7.03;;;;;;;24.86;52.30;101163.34;5053896;27;101014;-34
2022/06/23 08:42:33;;;;;;;17.17;6.68;;;;;;;25.01;52.27;101163.44;5054335;27;101551;-34
2022/06/23 08:45:40;;;;;;;18.50;7.03;;;;;;;25.26;51.77;101163.31;5054419;27;96577;-34
2022/06/23 08:48:27;;;;;;;19.67;6.78;;;;;;;25.30;51.69;101165.53;5056060;27;96595;-34
2022/06/23 08:51:30;;;;;;;17.70;7.22;;;;;;;25.49;51.65;101168.88;5055555;27;97417;-34
2022/06/23 08:54:12;;;;;;;20.15;7.38;;;;;;;25.66;50.77;101164.94;5055462;27;99028;-34
2022/06/23 08:56:51;;;;;;;19.38;7.68;;;;;;;25.75;51.27;101157.41;5055676;27;96721;-34
2022/06/23 08:59:35;;;;;;;19.15;6.78;;;;;;;25.98;50.90;101165.72;5054548;27;96606;-34
2022/06/23 09:02:21;;;;;;;21.20;7.80;;;;;;;26.03;50.60;101150.25;5055439;27;97932;-34
2022/06/23 09:05:02;;;;;;;18.70;7.88;;;;;;;26.20;50.72;101156.47;5053877;27;100968;-34
2022/06/23 09:07:54;;;;;;;25.10;7.97;;;;;;;26.36;50.62;101168.47;5053585;27;96687;-35
2022/06/23 09:10:25;;;;;;;;;;;;;;;26.50;50.42;101167.59;5054742;27;96843;-34
2022/06/23 09:12:53;;;;;;;26.08;7.95;;;;;;;26.60;49.98;101167.34;5055006;27;97510;-34
2022/06/23 09:15:30;;;;;;;18.40;7.45;;;;;;;26.73;50.48;101169.47;5055045;27;99109;-34
2022/06/23 09:18:20;;;;;;;25.50;7.75;;;;;;;26.70;50.31;101159.59;5055951;27;96779;-34
2022/06/23 09:21:04;;;;;;;16.10;7.97;;;;;;;26.86;49.78;101159.38;5055857;27;96797;-34
2022/06/23 09:24:00;;;;;;;19.98;8.38;;;;;;;26.94;49.96;101154.78;5053588;27;101000;-34
2022/06/23 09:26:58;;;;;;;28.10;9.82;;;;;;;27.03;50.25;101153.56;5054002;27;100887;-35
2022/06/23 09:30:11;;;;;;;20.42;8.02;;;;;;;27.22;49.76;101161.34;5037095;27;96741;-34
2022/06/23 09:32:58;;;;;;;23.77;8.18;;;;;;;27.36;48.82;101153.13;5043317;27;96727;-34
2022/06/23 09:35:33;;;;;;;22.83;8.55;;;;;;;27.49;49.12;101151.38;5054330;27;99159;-34
2022/06/23 09:38:13;;;;;;;23.77;8.07;;;;;;;27.61;49.13;101156.41;5055112;27;97922;-34
2022/06/23 09:41:04;;;;;;;19.42;8.10;;;;;;;27.80;48.44;101155.72;5055404;27;96767;-34
2022/06/23 09:43:53;;;;;;;22.20;8.15;;;;;;;27.89;47.78;101137.84;5055523;27;97186;-35
2022/06/23 09:46:39;;;;;;;18.13;7.65;;;;;;;28.00;48.79;101142.00;5053217;27;101185;-34
2022/06/23 09:49:32;;;;;;;25.20;8.93;;;;;;;27.92;48.29;101145.78;5053408;27;101032;-34
2022/06/23 09:52:09;;;;;;;23.80;8.80;;;;;;;27.97;48.64;101133.19;5055287;27;96564;-35
2022/06/23 09:55:02;;;;;;;26.48;8.20;;;;;;;27.86;48.97;101135.44;5054081;27;96744;-34
2022/06/23 09:57:33;;;;;;;28.65;8.63;;;;;;;28.04;49.34;101132.16;5054442;27;98092;-35
2022/06/23 10:00:04;;;;;;;16.70;7.45;;;;;;;28.22;49.11;101142.81;5054593;27;97305;-34
2022/06/23 10:02:34;;;;;;;23.40;8.45;;;;;;;28.33;48.56;101133.00;5052965;27;97039;-34
2022/06/23 10:05:32;;;;;;;22.15;7.65;;;;;;;28.43;48.17;101141.84;5053606;27;96825;-35
2022/06/23 10:08:27;;;;;;;17.75;6.57;;;;;;;28.63;48.26;101149.50;5054248;27;99617;-35
2022/06/23 10:11:13;;;;;;;22.83;6.32;;;;;;;28.67;48.38;101139.66;5054493;27;97937;-34
2022/06/23 10:14:17;;;;;;;27.25;8.60;;;;;;;28.71;47.69;101127.03;5053512;27;96663;-34
2022/06/23 10:16:42;;;;;;;22.48;6.78;;;;;;;28.89;48.00;101141.28;5053539;27;96710;-35
2022/06/23 10:19:38;;;;;;;20.90;7.55;;;;;;;28.79;47.96;101124.94;5054151;27;98817;-35
2022/06/23 10:22:37;;;;;;;19.50;6.65;;;;;;;28.84;47.03;101129.91;5053498;27;101121;-34
2022/06/23 10:25:06;;;;;;;13.40;5.63;;;;;;;28.97;47.67;101126.28;5058107;27;96564;-34
2022/06/23 10:27:45;;;;;;;27.27;8.15;;;;;;;29.19;47.65;101125.09;5058626;27;96827;-34
2022/06/23 10:30:18;;;;;;;27.75;6.80;;;;;;;29.41;47.07;101128.59;5056066;27;100902;-35
2022/06/23 10:33:02;;;;;;;22.48;8.95;;;;;;;29.54;46.53;101121.31;5056156;27;100800;-35
2022/06/23 10:35:48;;;;;;;22.38;7.47;;;;;;;29.60;46.02;101107.34;5056734;27;96661;-35
2022/06/23 10:38:31;;;;;;;27.42;8.38;;;;;;;29.64;45.93;101102.19;5056647;27;96630;-35
2022/06/23 10:41:11;;;;;;;25.45;8.15;;;;;;;29.84;45.82;101102.19;5056266;27;101010;-34
2022/06/23 10:44:12;;;;;;;17.27;7.35;;;;;;;29.73;46.14;101111.25;5057948;27;97493;-35
2022/06/23 10:46:49;;;;;;;21.73;6.97;;;;;;;29.84;45.73;101100.28;5052278;27;96887;-34
2022/06/23 10:49:17;;;;;;;16.20;7.75;;;;;;;29.83;46.53;101103.28;5056931;27;96814;-34
2022/06/23 10:52:00;;;;;;;18.65;7.20;;;;;;;29.57;45.89;101096.59;5057422;27;97315;-34
2022/06/23 10:54:31;;;;;;;19.67;8.23;;;;;;;29.66;46.51;101099.19;5056234;27;100769;-35
2022/06/23 10:57:15;;;;;;;;;;;;;;;29.88;46.11;101097.06;5057208;27;96801;-35
2022/06/23 10:59:45;;;;;;;18.60;6.90;;;;;;;29.85;45.49;101078.81;5057534;27;96464;-35
2022/06/23 11:02:22;;;;;;;19.75;7.57;;;;;;;29.89;46.00;101077.31;5057355;27;97955;-35
2022/06/23 11:05:09;;;;;;;17.98;8.07;;;;;;;30.03;45.76;101090.19;5056073;27;99353;-35
2022/06/23 11:08:01;;;;;;;18.25;7.10;;;;;;;29.79;46.22;101091.69;5056494;27;97029;-35
2022/06/23 11:10:46;;;;;;;15.18;7.85;;;;;;;29.44;46.69;101082.66;5056403;27;96697;-34
2022/06/23 11:13:27;;;;;;;20.73;7.03;;;;;;;29.53;46.95;101089.75;5057037;27;99773;-35
2022/06/23 11:15:58;;;;;;;22.08;7.38;;;;;;;29.68;46.73;101091.50;5057702;27;97842;-35
2022/06/23 11:18:48;;;;;;;22.17;7.38;;;;;;;29.59;46.85;101086.06;5057823;27;96464;-35
2022/06/23 11:21:35;;;;;;;22.92;7.07;;;;;;;29.38;47.81;101097.44;5056047;27;96733;-35
2022/06/23 11:24:16;;;;;;;19.90;7.57;;;;;;;29.39;47.10;101082.41;5055820;27;98047;-36
2022/06/23 11:27:19;;;;;;;19.70;6.90;;;;;;;29.56;47.19;101086.50;5054517;27;101323;-35
2022/06/23 11:30:09;;;;;;;19.58;7.63;;;;;;;29.52;46.83;101082.41;5046517;27;97099;-35
2022/06/23 11:32:58;;;;;;;23.13;6.50;;;;;;;29.51;47.41;101075.13;5056717;27;96767;-35
2022/06/23 11:35:28;;;;;;;21.00;6.75;;;;;;;29.76;47.00;101086.53;5056216;27;97912;-35
2022/06/23 11:38:21;;;;;;;27.05;8.77;;;;;;;29.52;46.65;101076.84;5056863;27;99138;-35
2022/06/23 11:41:05;;;;;;;18.83;7.00;;;;;;;29.44;46.42;101077.06;5057262;27;96538;-34
2022/06/23 11:43:45;;;;;;;21.83;5.80;;;;;;;29.60;47.05;101067.38;5057442;27;96825;-35
2022/06/23 11:46:34;;;;;;;12.32;5.65;;;;;;;29.57;46.26;101070.59;5055222;27;100892;-35
2022/06/23 11:49:26;;;;;;;18.02;6.38;;;;;;;29.30;46.50;101058.59;5054984;27;100927;-35
2022/06/23 11:52:18;;;;;;;14.00;4.97;;;;;;;29.28;47.60;101066.31;5056728;27;96731;-34
2022/06/23 11:55:15;;;;;;;20.05;6.97;;;;;;;29.56;46.42;101055.78;5055417;27;96822;-34
2022/06/23 11:57:47;;;;;;;13.73;5.78;;;;;;;29.70;46.39;101053.00;5054583;27;99423;-34
2022/06/23 12:00:17;;;;;;;13.02;5.40;;;;;;;29.55;46.58;101053.22;5056512;27;97350;-34
2022/06/23 12:03:08;;;;;;;16.38;6.35;;;;;;;29.63;46.67;101025.94;5055482;27;96763;-34
2022/06/23 12:05:59;;;;;;;17.33;5.73;;;;;;;30.05;45.89;101037.69;5051739;27;97049;-35
2022/06/23 12:08:46;;;;;;;11.75;4.80;;;;;;;30.32;44.51;101048.88;5056076;27;99807;-34
2022/06/23 12:11:11;;;;;;;12.60;4.95;;;;;;;30.28;44.96;101039.19;5055123;27;101320;-35
2022/06/23 12:13:37;;;;;;;14.55;4.38;;;;;;;30.12;45.55;101048.00;5056581;27;96617;-35
2022/06/23 12:16:03;;;;;;;11.68;4.68;;;;;;;30.19;45.37;101040.47;5056400;27;96774;-34
2022/06/23 12:18:36;;;;;;;14.48;6.90;;;;;;;30.30;43.61;101037.03;5054134;27;100989;-34
2022/06/23 12:21:14;;;;;;;13.20;4.80;;;;;;;30.37;45.25;101037.03;5056076;27;99357;-34
2022/06/23 12:24:15;;;;;;;12.40;5.03;;;;;;;30.55;44.92;101033.50;5056343;27;96595;-35
2022/06/23 12:26:50;;;;;;;15.18;4.22;;;;;;;30.72;45.02;101039.44;5055964;27;96863;-32
2022/06/23 12:29:25;;;;;;;9.68;4.45;;;;;;;30.63;44.52;101034.09;5054582;27;101383;-32
2022/06/23 12:31:57;;;;;;;14.88;4.63;;;;;;;30.71;44.84;101044.16;5054438;27;100523;-32
2022/06/23 12:34:35;;;;;;;12.77;4.20;;;;;;;30.83;43.74;101030.34;5054807;27;96574;-32
2022/06/23 12:37:13;;;;;;;13.02;4.20;;;;;;;30.55;44.27;101025.94;5055243;27;96703;-33
2022/06/23 12:39:52;;;;;;;9.98;3.80;;;;;;;30.23;42.70;101038.97;5054394;27;100898;-34
2022/06/23 12:42:28;;;;;;;14.45;4.47;;;;;;;29.88;45.05;101028.06;5055134;27;96621;-35
2022/06/23 12:45:08;;;;;;;10.73;3.63;;;;;;;29.88;44.30;101032.81;5055243;27;96840;-35
2022/06/23 12:47:56;;;;;;;7.15;3.33;;;;;;;29.99;44.51;101035.81;5055002;27;96532;-35
2022/06/23 12:50:24;;;;;;;6.93;3.83;;;;;;;30.23;44.71;101030.59;5054186;27;100765;-35
2022/06/23 12:53:18;;;;;;;9.98;3.25;;;;;;;30.45;43.98;101020.84;5055597;27;97371;-35
2022/06/23 12:56:01;;;;;;;13.02;3.92;;;;;;;30.40;43.59;101008.63;5045462;27;96654;-35
2022/06/23 12:58:40;;;;;;;6.30;3.53;;;;;;;30.20;42.86;101019.81;5054434;27;96681;-34
2022/06/23 13:01:11;;;;;;;12.20;3.63;;;;;;;30.30;43.31;101011.03;5054034;27;101212;-35
2022/06/23 13:03:55;;;;;;;;;;;;;;;30.36;44.04;101007.34;5054775;27;101476;-35
2022/06/23 13:06:44;;;;;;;6.72;3.35;;;;;;;30.55;42.81;101005.53;5056032;27;96453;-35
2022/06/23 13:09:23;;;;;;;13.18;4.10;;;;;;;30.47;43.02;101004.69;5055646;27;96637;-35
2022/06/23 13:12:09;;;;;;;8.18;3.00;;;;;;;30.29;43.08;101003.72;5053527;27;101227;-35
2022/06/23 13:14:40;;;;;;;13.00;3.70;;;;;;;30.45;43.24;101000.41;5053895;27;100708;-35
2022/06/23 13:17:22;;;;;;;8.35;3.15;;;;;;;30.55;43.38;100991.53;5055513;27;96602;-35
2022/06/23 13:20:06;;;;;;;10.77;4.00;;;;;;;30.60;42.88;100998.16;5055506;27;96853;-35
2022/06/23 13:22:54;;;;;;;6.22;3.00;;;;;;;30.75;41.99;100988.63;5053734;27;101039;-35
2022/06/23 13:25:28;;;;;;;6.90;3.17;;;;;;;30.93;42.66;100997.16;5055445;27;97506;-35
2022/06/23 13:27:55;;;;;;;9.35;3.50;;;;;;;30.99;41.99;100992.63;5055050;27;96523;-35
2022/06/23 13:30:24;;;;;;;4.28;2.72;;;;;;;30.84;41.77;101004.09;5054446;27;96784;-35
2022/06/23 13:33:03;;;;;;;4.65;2.65;;;;;;;30.46;41.59;101005.78;5053475;27;101147;-35
2022/06/23 13:35:38;;;;;;;5.35;3.15;;;;;;;30.25;41.66;101012.53;5054926;27;99206;-32
2022/06/23 13:38:15;;;;;;;8.80;3.05;;;;;;;30.36;41.74;101001.75;5053485;27;96525;-32
2022/06/23 13:41:07;;;;;;;8.23;2.83;;;;;;;30.44;41.52;100993.97;5053957;27;96787;-32
2022/06/23 13:43:45;;;;;;;3.22;2.40;;;;;;;30.40;41.05;100989.91;5053597;27;100948;-32
2022/06/23 13:46:40;;;;;;;9.57;3.20;;;;;;;30.22;40.23;100987.81;5054674;27;99076;-32
2022/06/23 13:49:18;;;;;;;3.63;2.17;;;;;;;30.36;41.32;100990.56;5055274;27;96560;-32
2022/06/23 13:51:53;;;;;;;5.82;2.47;;;;;;;30.42;41.45;100992.47;5055088;27;96841;-32
2022/06/23 13:54:23;;;;;;;6.68;2.72;;;;;;;30.45;41.21;100992.03;5053371;27;101171;-32
2022/06/23 13:57:06;;;;;;;11.63;3.08;;;;;;;30.41;40.77;100985.16;5054902;27;97808;-32
2022/06/23 13:59:43;;;;;;;4.70;2.25;;;;;;;30.48;41.63;100984.03;5057247;27;96995;-32
2022/06/23 14:02:30;;;;;;;8.30;2.55;;;;;;;30.48;41.39;100983.19;5056025;27;96822;-33
2022/06/23 14:05:39;;;;;;;5.18;2.83;;;;;;;30.33;41.44;100988.22;5057169;27;99420;-32
2022/06/23 14:08:16;;;;;;;4.20;2.30;;;;;;;30.25;41.35;100980.91;5056610;27;100928;-32
2022/06/23 14:11:00;;;;;;;4.97;2.40;;;;;;;30.25;41.34;100973.41;5057071;27;96633;-33
2022/06/23 14:13:36;;;;;;;6.60;2.67;;;;;;;30.24;41.31;100973.59;5057047;27;96740;-35
2022/06/23 14:16:10;;;;;;;7.32;2.75;;;;;;;30.27;40.53;100970.38;5056210;27;101248;-35
2022/06/23 14:18:46;;;;;;;5.47;2.38;;;;;;;30.26;40.84;100947.16;5056701;27;101454;-35
2022/06/23 14:21:37;;;;;;;10.35;2.70;;;;;;;30.42;40.67;100959.78;5057091;27;96871;-35
2022/06/23 14:24:14;;;;;;;5.40;2.37;;;;;;;30.47;40.95;100965.56;5057326;27;96708;-35
2022/06/23 14:27:02;;;;;;;4.97;2.92;;;;;;;30.34;40.75;100957.22;5058124;27;97596;-35
2022/06/23 14:29:37;;;;;;;6.82;2.35;;;;;;;30.29;40.39;100953.41;5056372;27;100749;-34
2022/06/23 14:32:37;;;;;;;8.35;2.97;;;;;;;30.31;40.10;100956.84;5056115;27;96564;-35
2022/06/23 14:35:17;;;;;;;7.32;2.28;;;;;;;30.32;42.03;100939.84;5021181;27;96891;-35
2022/06/23 14:37:53;;;;;;;4.30;2.45;;;;;;;30.33;39.73;100935.09;5056383;27;101052;-35
2022/06/23 14:40:54;;;;;;;6.05;2.50;;;;;;;30.23;40.49;100935.56;5056240;27;100996;-35
2022/06/23 14:43:35;;;;;;;9.90;2.17;;;;;;;30.26;41.52;100937.94;5049743;27;96850;-35
2022/06/23 14:46:25;;;;;;;7.00;2.38;;;;;;;30.33;40.45;100927.56;5056514;27;96777;-35
2022/06/23 14:49:03;;;;;;;2.83;1.90;;;;;;;30.23;40.42;100918.78;5057812;27;98109;-35
2022/06/23 14:51:47;;;;;;;4.40;2.38;;;;;;;30.22;40.53;100929.13;5057917;27;97380;-35
2022/06/23 14:54:36;;;;;;;5.50;2.53;;;;;;;30.21;41.37;100932.13;5056663;27;96678;-35
2022/06/23 14:57:13;;;;;;;5.65;2.58;;;;;;;30.27;41.30;100929.34;5055863;27;96936;-35
2022/06/23 14:59:51;;;;;;;4.38;2.22;;;;;;;30.25;40.02;100905.44;5055573;27;100779;-35
2022/06/23 15:02:45;;;;;;;6.82;2.47;;;;;;;30.27;40.41;100920.94;5055999;27;100842;-35
2022/06/23 15:05:32;;;;;;;5.63;2.53;;;;;;;30.15;40.91;100919.91;5056509;27;96726;-35
2022/06/23 15:08:26;;;;;;;3.22;2.20;;;;;;;30.15;40.22;100922.69;5055934;27;96748;-35
2022/06/23 15:10:56;;;;;;;3.90;2.22;;;;;;;30.13;40.80;100919.28;5054244;27;101094;-35
2022/06/23 15:13:34;;;;;;;4.25;2.65;;;;;;;30.13;40.22;100913.69;5055802;27;101081;-35
2022/06/23 15:16:13;;;;;;;4.30;2.30;;;;;;;30.08;40.43;100915.41;5057371;27;96555;-35
2022/06/23 15:19:12;;;;;;;4.68;2.38;;;;;;;29.80;40.36;100903.50;5056512;27;96783;-35
2022/06/23 15:24:54;;;;;;;5.03;2.60;;;;;;;29.66;41.43;100901.78;5057486;27;97026;-35
2022/06/23 15:27:32;;;;;;;7.63;2.53;;;;;;;29.66;41.37;100890.63;5056801;27;96567;-35
2022/06/23 15:30:24;;;;;;;6.28;2.63;;;;;;;29.66;41.90;100899.00;5055986;27;96508;-35
2022/06/23 15:32:59;;;;;;;7.95;2.47;;;;;;;29.60;40.83;100900.75;5056483;27;99472;-35
2022/06/23 15:35:59;;;;;;;6.70;2.55;;;;;;;29.57;40.62;100891.94;5055504;27;100852;-35
2022/06/23 15:38:37;;;;;;;4.63;2.08;;;;;;;29.64;40.97;100896.41;5056682;27;96522;-35
2022/06/23 15:41:09;;;;;;;4.40;2.33;;;;;;;29.72;40.47;100905.66;5055765;27;96711;-35
2022/06/23 15:43:59;;;;;;;5.63;2.17;;;;;;;29.74;40.57;100892.34;5056554;27;98001;-35
2022/06/23 15:46:36;;;;;;;4.30;2.25;;;;;;;29.70;40.13;100893.84;5057079;27;97886;-35
2022/06/23 15:49:07;;;;;;;6.05;2.70;;;;;;;29.69;40.62;100898.59;5057184;27;96621;-35
2022/06/23 15:51:41;;;;;;;6.15;2.13;;;;;;;29.68;40.17;100905.25;5055753;27;96851;-35
2022/06/23 15:54:20;;;;;;;6.45;2.65;;;;;;;29.74;39.60;100897.94;5054752;27;101450;-35
2022/06/23 15:56:59;;;;;;;6.53;2.10;;;;;;;29.72;39.31;100900.91;5054630;27;100541;-35
2022/06/23 15:59:37;;;;;;;5.95;2.05;;;;;;;29.66;40.02;100885.03;5055787;27;96512;-35
2022/06/23 16:02:40;;;;;;;5.00;2.33;;;;;;;29.68;38.28;100882.06;5055611;27;96764;-35
2022/06/23 16:05:10;;;;;;;4.28;3.10;;;;;;;29.67;39.55;100885.91;5056213;27;99377;-35
2022/06/23 16:07:39;;;;;;;10.35;2.42;;;;;;;29.69;39.08;100878.19;5054958;27;100522;-35
2022/06/23 16:10:25;;;;;;;4.45;1.92;;;;;;;29.67;39.50;100881.19;5055112;27;96558;-35
2022/06/23 16:12:53;;;;;;;4.60;1.80;;;;;;;29.71;39.75;100882.47;5055515;27;96864;-35
2022/06/23 16:15:37;;;;;;;4.03;2.40;;;;;;;29.78;40.35;100886.09;5054845;27;100991;-35
2022/06/23 16:18:08;;;;;;;3.97;2.25;;;;;;;29.75;40.14;100886.53;5054848;27;101078;-35
2022/06/23 16:21:07;;;;;;;9.05;2.38;;;;;;;29.80;41.63;100883.09;5054619;27;96597;-35
2022/06/23 16:23:53;;;;;;;8.60;2.85;;;;;;;29.71;40.93;100876.88;5056401;27;96776;-35
2022/06/23 16:26:27;;;;;;;6.85;2.72;;;;;;;29.70;41.46;100877.97;5054792;27;101035;-35
2022/06/23 16:29:01;;;;;;;7.88;2.72;;;;;;;29.71;41.19;100874.09;5054500;27;101502;-35
2022/06/23 16:31:43;;;;;;;7.13;2.53;;;;;;;29.79;41.53;100878.56;5054651;27;96658;-35
2022/06/23 16:34:30;;;;;;;5.75;2.58;;;;;;;29.75;42.19;100877.31;5054590;27;96672;-35
2022/06/23 16:37:23;;;;;;;6.65;3.00;;;;;;;29.68;43.08;100880.13;5055604;27;98880;-35
2022/06/23 16:40:14;;;;;;;5.15;2.78;;;;;;;29.69;43.19;100880.97;5054838;27;99362;-35
2022/06/23 16:42:55;;;;;;;9.00;3.38;;;;;;;29.70;42.75;100877.09;5054752;27;96631;-35
2022/06/23 16:45:25;;;;;;;4.88;3.30;;;;;;;29.71;43.24;100876.88;5055837;27;96829;-35
2022/06/23 16:47:53;;;;;;;7.85;3.25;;;;;;;29.68;43.25;100877.34;5053590;27;102551;-35
2022/06/23 16:50:37;;;;;;;11.45;3.75;;;;;;;29.65;43.99;100874.94;5054106;27;100929;-35
2022/06/23 16:53:23;;;;;;;6.00;3.85;;;;;;;29.62;44.31;100873.44;5054699;27;96607;-35
2022/06/23 16:56:18;;;;;;;10.60;3.58;;;;;;;29.59;44.02;100873.03;5055868;27;96689;-35
2022/06/23 16:59:10;;;;;;;8.13;3.60;;;;;;;29.51;44.55;100868.56;5045614;27;97663;-35
2022/06/23 17:01:53;;;;;;;7.60;3.20;;;;;;;29.51;45.21;100874.13;5054153;27;101243;-35
2022/06/23 17:04:31;;;;;;;5.95;3.70;;;;;;;29.43;44.72;100868.78;5054392;27;96608;-35
2022/06/23 17:07:35;;;;;;;5.90;3.00;;;;;;;29.37;44.23;100875.25;5054775;27;96885;-35
2022/06/23 17:10:37;;;;;;;6.32;3.30;;;;;;;29.30;44.23;100868.81;5050401;27;101083;-35
2022/06/23 17:13:21;;;;;;;5.55;3.10;;;;;;;29.34;44.96;100864.50;5047752;27;98482;-35
2022/06/23 17:15:51;;;;;;;6.78;3.20;;;;;;;29.24;44.79;100869.66;5053793;27;96687;-35
2022/06/23 17:18:28;;;;;;;10.88;3.13;;;;;;;29.18;45.11;100860.25;5054144;27;96785;-35
2022/06/23 17:21:00;;;;;;;5.35;3.13;;;;;;;29.15;45.06;100866.25;5053792;27;101060;-35
2022/06/23 17:23:27;;;;;;;5.05;3.25;;;;;;;29.13;45.24;100858.09;5053646;27;100764;-32
2022/06/23 17:25:59;;;;;;;13.15;3.45;;;;;;;29.16;45.51;100866.03;5053982;27;96569;-32